This is the latest recevied weather packets stored in our database for station/object KB3HLL. If no packets are shown the sender has not sent any weather packets the latest 1 day(s).
| Time | Temp. | Humidity | Pressure | Rain* | Wind** | Luminosity | Snow |
|---|---|---|---|---|---|---|---|
| 1778058979 | 13.33° C | 91% | 1009.6 hPa | 1.27 mm | - | 0 W/m² | - |
| 1778058681 | 13.89° C | 90% | 1009.6 hPa | 1.27 mm | - | 0 W/m² | - |
| 1778057180 | 15° C | 82% | 1009.6 hPa | 1.02 mm | - | 0 W/m² | - |
| 1778056578 | 15.56° C | 78% | 1009.8 hPa | 0.76 mm | - | 0 W/m² | - |
| 1778056280 | 15.56° C | 77% | 1009.8 hPa | 0.76 mm | - | 0 W/m² | - |
| 1778055380 | 15.56° C | 78% | 1009.9 hPa | 0.51 mm | - | 0 W/m² | - |
| 1778055080 | 15.56° C | 78% | 1010 hPa | 0.25 mm | - | 0 W/m² | - |
| 1778054478 | 16.67° C | 72% | 1009.6 hPa | 0.25 mm | - | 0 W/m² | - |
| 1778054178 | 17.22° C | 70% | 1009.5 hPa | 0 mm | - | 0 W/m² | - |
| 1778053582 | 17.78° C | 65% | 1009.6 hPa | 0 mm | - | 0 W/m² | - |
| 1778053277 | 17.78° C | 63% | 1009.8 hPa | 0 mm | - | 0 W/m² | - |
| 1778052980 | 18.33° C | 61% | 1009.6 hPa | 0 mm | - | 0 W/m² | - |
| 1778052678 | 18.33° C | 61% | 1009.6 hPa | 0 mm | - | 0 W/m² | - |
| 1778052078 | 18.33° C | 61% | 1009.8 hPa | 0 mm | - | 0 W/m² | - |
| 1778051777 | 18.33° C | 60% | 1009.6 hPa | 0 mm | - | 0 W/m² | - |
| 1778051478 | 18.33° C | 60% | 1009.6 hPa | 0 mm | - | 0 W/m² | - |
| 1778051180 | 18.33° C | 59% | 1009.6 hPa | 0 mm | - | 0 W/m² | - |
| 1778050878 | 18.33° C | 59% | 1009.8 hPa | 0 mm | - | 0 W/m² | - |
| 1778050578 | 18.33° C | 60% | 1009.9 hPa | 0 mm | - | 0 W/m² | - |
| 1778050278 | 18.33° C | 60% | 1009.8 hPa | 0 mm | - | 0 W/m² | - |
| 1778049978 | 18.33° C | 59% | 1009.8 hPa | 0 mm | - | 0 W/m² | - |
| 1778049680 | 18.33° C | 60% | 1009.9 hPa | 0 mm | - | 0 W/m² | - |
| 1778049080 | 18.33° C | 59% | 1010.1 hPa | 0 mm | - | 0 W/m² | - |
| 1778048478 | 18.33° C | 59% | 1010.1 hPa | 0 mm | - | 0 W/m² | - |
| 1778048178 | 18.33° C | 60% | 1010.2 hPa | 0 mm | - | 0 W/m² | - |
* Rain latest hour (hover to see other rain measurements)
** Current wind speed in m/s (hover to see current wind gust speed)